createdAt,value
2022-09-11T00:01:45.688Z,8.03
2022-09-11T00:04:14.269Z,7.47
2022-09-11T00:06:43.889Z,7.27
2022-09-11T00:09:12.265Z,8.23
2022-09-11T00:11:43.751Z,7.10
2022-09-11T00:14:14.923Z,7.60
2022-09-11T00:16:47.386Z,7.80
2022-09-11T00:19:19.019Z,7.73
2022-09-11T00:21:47.858Z,7.70
2022-09-11T00:24:16.259Z,7.07
2022-09-11T00:26:47.262Z,8.03
2022-09-11T00:29:15.852Z,6.17
2022-09-11T00:31:45.804Z,6.40
2022-09-11T00:34:14.343Z,6.73
2022-09-11T00:36:43.409Z,6.43
2022-09-11T00:39:12.944Z,6.77
2022-09-11T00:41:43.341Z,6.73
2022-09-11T00:44:45.510Z,6.33
2022-09-11T00:47:19.266Z,7.07
2022-09-11T00:49:52.460Z,6.23
2022-09-11T00:52:27.330Z,5.80
2022-09-11T00:55:01.166Z,5.10
2022-09-11T00:57:34.132Z,5.53
2022-09-11T01:00:03.977Z,6.37
2022-09-11T01:02:37.067Z,6.27
2022-09-11T01:05:07.510Z,5.10
2022-09-11T01:07:38.013Z,3.90
2022-09-11T01:10:08.348Z,4.30
2022-09-11T01:12:48.728Z,4.60
2022-09-11T01:15:24.492Z,4.57
2022-09-11T01:18:03.818Z,3.70
2022-09-11T01:20:47.694Z,4.43
2022-09-11T01:23:49.604Z,4.20
2022-09-11T01:26:38.642Z,4.07
2022-09-11T01:29:16.031Z,3.90
2022-09-11T01:31:50.803Z,4.47
2022-09-11T01:34:25.618Z,4.47
2022-09-11T01:36:59.349Z,4.40
2022-09-11T01:39:35.017Z,4.67
2022-09-11T01:42:09.118Z,4.63
2022-09-11T01:44:43.009Z,4.80
2022-09-11T01:47:13.784Z,5.10
2022-09-11T01:49:48.200Z,4.53
2022-09-11T01:52:20.623Z,4.97
2022-09-11T01:55:10.690Z,5.13
2022-09-11T01:57:43.545Z,4.90
2022-09-11T02:00:16.018Z,4.30
2022-09-11T02:02:48.197Z,5.60
2022-09-11T02:05:20.670Z,5.73
2022-09-11T02:07:58.546Z,5.80
2022-09-11T02:10:31.931Z,6.27
2022-09-11T02:13:08.584Z,6.60
2022-09-11T02:15:43.577Z,6.30
2022-09-11T02:18:20.519Z,6.30
2022-09-11T02:20:48.880Z,6.33
2022-09-11T02:23:18.170Z,5.63
2022-09-11T02:25:48.141Z,6.30
2022-09-11T02:28:17.302Z,7.10
2022-09-11T02:30:47.229Z,6.20
2022-09-11T02:33:29.964Z,6.60
2022-09-11T02:36:13.871Z,6.10
2022-09-11T02:38:52.832Z,7.60
2022-09-11T02:41:25.888Z,8.03
2022-09-11T02:44:05.862Z,7.37
2022-09-11T02:46:59.570Z,7.37
2022-09-11T02:49:40.927Z,6.70
2022-09-11T02:52:18.466Z,6.60
2022-09-11T02:54:55.229Z,8.00
2022-09-11T02:57:30.945Z,7.67
2022-09-11T03:00:02.377Z,10.97
2022-09-11T03:02:37.636Z,10.70
2022-09-11T03:05:07.387Z,10.87
2022-09-11T03:07:35.936Z,11.53
2022-09-11T03:10:04.893Z,10.90
2022-09-11T03:12:34.988Z,10.77
2022-09-11T03:15:05.923Z,9.63
2022-09-11T03:17:35.922Z,8.60
2022-09-11T03:20:05.022Z,9.47
2022-09-11T03:22:33.658Z,8.63
2022-09-11T03:25:02.088Z,8.00
2022-09-11T03:27:32.378Z,9.00
2022-09-11T03:30:01.607Z,7.90
2022-09-11T03:32:32.457Z,8.30
2022-09-11T03:35:02.622Z,7.10
2022-09-11T03:37:33.428Z,8.57
2022-09-11T03:40:03.508Z,9.30
2022-09-11T03:42:33.547Z,8.00
2022-09-11T03:45:02.489Z,7.27
2022-09-11T03:47:30.955Z,6.83
2022-09-11T03:49:59.426Z,8.10
2022-09-11T03:52:30.405Z,8.20
2022-09-11T03:54:58.827Z,8.27
2022-09-11T03:57:27.498Z,7.80
2022-09-11T03:59:56.976Z,8.23
2022-09-11T04:02:25.545Z,8.40
2022-09-11T04:04:55.786Z,8.33
2022-09-11T04:07:24.265Z,8.70
2022-09-11T04:09:54.336Z,8.80
2022-09-11T04:12:22.917Z,7.97
2022-09-11T04:14:51.682Z,8.07
2022-09-11T04:17:20.201Z,8.43
2022-09-11T04:19:48.670Z,8.23
2022-09-11T04:22:17.110Z,8.73
2022-09-11T04:24:45.521Z,8.90
2022-09-11T04:27:18.155Z,8.93
2022-09-11T04:29:48.861Z,9.17
2022-09-11T04:32:18.322Z,9.30
2022-09-11T04:34:46.929Z,9.03
2022-09-11T04:37:16.655Z,9.07
2022-09-11T04:39:45.360Z,8.67
2022-09-11T04:42:14.022Z,8.80
2022-09-11T04:44:46.891Z,9.53
2022-09-11T04:47:16.180Z,9.67
2022-09-11T04:49:46.882Z,9.43
2022-09-11T04:52:15.899Z,9.87
2022-09-11T04:54:46.247Z,9.47
2022-09-11T04:57:17.057Z,9.67
2022-09-11T04:59:48.124Z,9.50
2022-09-11T05:02:16.747Z,9.00
2022-09-11T05:04:48.652Z,9.63
2022-09-11T05:07:17.198Z,9.57
2022-09-11T05:09:49.225Z,9.73
2022-09-11T05:12:19.687Z,9.77
2022-09-11T05:14:49.560Z,9.73
2022-09-11T05:17:18.528Z,9.60
2022-09-11T05:19:47.028Z,9.40
2022-09-11T05:22:15.878Z,9.50
2022-09-11T05:24:48.838Z,9.47
2022-09-11T05:27:18.296Z,9.83
2022-09-11T05:29:46.870Z,8.97
2022-09-11T05:32:18.214Z,8.63
2022-09-11T05:34:46.963Z,8.90
2022-09-11T05:37:17.922Z,9.27
2022-09-11T05:39:48.013Z,8.90
2022-09-11T05:42:18.006Z,9.30
2022-09-11T05:44:52.370Z,8.63
2022-09-11T05:47:23.618Z,8.93
2022-09-11T05:49:56.564Z,8.27
2022-09-11T05:52:25.602Z,8.10
2022-09-11T05:54:54.568Z,7.67
2022-09-11T05:57:24.125Z,7.93
2022-09-11T05:59:52.733Z,7.97
2022-09-11T06:02:22.751Z,8.13
2022-09-11T06:04:56.642Z,7.70
2022-09-11T06:07:27.024Z,7.30
2022-09-11T06:10:02.334Z,7.27
2022-09-11T06:12:32.030Z,7.37
2022-09-11T06:15:00.996Z,6.70
2022-09-11T06:17:30.897Z,6.40
2022-09-11T06:19:59.832Z,6.60
2022-09-11T06:22:29.820Z,6.43
2022-09-11T06:24:58.359Z,5.20
2022-09-11T06:27:28.475Z,4.40
2022-09-11T06:29:57.158Z,4.80
2022-09-11T06:32:25.742Z,4.40
2022-09-11T06:34:59.027Z,4.10
2022-09-11T06:37:27.982Z,4.30
2022-09-11T06:39:57.164Z,4.40
2022-09-11T06:42:28.844Z,4.20
2022-09-11T06:45:00.672Z,4.50
2022-09-11T06:47:31.534Z,4.00
2022-09-11T06:50:01.719Z,4.18
2022-09-11T06:52:36.172Z,3.88
2022-09-11T06:55:25.694Z,3.70
2022-09-11T06:58:00.355Z,3.73
2022-09-11T07:00:32.106Z,3.90
2022-09-11T07:03:01.863Z,3.42
2022-09-11T07:05:33.971Z,3.80
2022-09-11T07:08:04.005Z,3.37
2022-09-11T07:10:35.284Z,3.20
2022-09-11T07:13:04.305Z,3.40
2022-09-11T07:15:33.435Z,3.40
2022-09-11T07:18:03.601Z,3.40
2022-09-11T07:20:34.151Z,3.42
2022-09-11T07:23:02.925Z,3.20
2022-09-11T07:25:33.236Z,3.15
2022-09-11T07:28:02.047Z,2.92
2022-09-11T07:30:32.568Z,2.70
2022-09-11T07:33:02.133Z,2.97
2022-09-11T07:35:31.498Z,2.85
2022-09-11T07:38:01.547Z,3.10
2022-09-11T07:40:30.079Z,2.75
2022-09-11T07:43:01.039Z,2.85
2022-09-11T07:45:30.127Z,2.67
2022-09-11T07:48:02.837Z,2.80
2022-09-11T07:50:33.327Z,2.38
2022-09-11T07:53:03.906Z,2.50
2022-09-11T07:55:35.869Z,2.58
2022-09-11T07:58:05.096Z,2.22
2022-09-11T08:00:36.973Z,2.55
2022-09-11T08:03:15.038Z,2.42
2022-09-11T08:05:43.730Z,2.50
2022-09-11T08:08:15.694Z,2.40
2022-09-11T08:10:44.424Z,2.20
2022-09-11T08:13:13.202Z,2.22
2022-09-11T08:15:48.646Z,2.28
2022-09-11T08:18:17.735Z,2.33
2022-09-11T08:20:46.444Z,2.60
2022-09-11T08:23:16.986Z,2.25
2022-09-11T08:25:45.988Z,2.22
2022-09-11T08:28:15.854Z,2.35
2022-09-11T08:30:44.874Z,2.40
2022-09-11T08:33:14.151Z,2.20
2022-09-11T08:35:43.201Z,2.10
2022-09-11T08:38:11.646Z,2.03
2022-09-11T08:40:41.659Z,2.00
2022-09-11T08:43:21.074Z,1.98
2022-09-11T08:45:52.792Z,2.10
2022-09-11T08:48:28.575Z,1.98
2022-09-11T08:50:57.399Z,2.03
2022-09-11T08:53:27.191Z,2.10
2022-09-11T08:56:03.849Z,2.33
2022-09-11T08:58:40.295Z,2.40
2022-09-11T09:01:15.789Z,2.40
2022-09-11T09:04:08.260Z,2.42
2022-09-11T09:06:52.994Z,2.50
2022-09-11T09:09:35.274Z,2.83
2022-09-11T09:12:17.580Z,2.17
2022-09-11T09:15:04.791Z,2.60
2022-09-11T09:17:40.229Z,2.45
2022-09-11T09:20:13.662Z,2.60
2022-09-11T09:22:49.747Z,3.08
2022-09-11T09:25:21.299Z,3.00
2022-09-11T09:27:55.222Z,3.70
2022-09-11T09:30:27.486Z,3.60
2022-09-11T09:33:01.266Z,3.28
2022-09-11T09:35:39.440Z,3.50
2022-09-11T09:38:14.024Z,3.60
2022-09-11T09:40:55.140Z,3.35
2022-09-11T09:43:36.042Z,3.70
2022-09-11T09:46:16.476Z,3.78
2022-09-11T09:48:45.206Z,3.20
2022-09-11T09:51:15.135Z,3.13
2022-09-11T09:53:48.383Z,3.53
2022-09-11T09:56:19.554Z,3.08
2022-09-11T09:59:01.060Z,2.70
2022-09-11T10:01:47.974Z,3.15
2022-09-11T10:04:19.448Z,3.10
2022-09-11T10:06:50.890Z,3.28
2022-09-11T10:09:28.183Z,3.28
2022-09-11T10:12:02.847Z,3.25
2022-09-11T10:14:50.992Z,3.30
2022-09-11T10:17:25.750Z,3.42
2022-09-11T10:19:57.207Z,2.95
2022-09-11T10:22:28.517Z,3.65
2022-09-11T10:25:14.526Z,3.92
2022-09-11T10:27:56.376Z,3.65
2022-09-11T10:30:39.084Z,3.67
2022-09-11T10:33:17.850Z,3.63
2022-09-11T10:35:53.285Z,3.70
2022-09-11T10:38:22.791Z,3.70
2022-09-11T10:40:58.173Z,3.55
2022-09-11T10:43:33.335Z,3.80
2022-09-11T10:46:22.067Z,3.83
2022-09-11T10:48:55.447Z,3.72
2022-09-11T10:51:24.963Z,3.60
2022-09-11T10:54:07.869Z,3.40
2022-09-11T10:56:44.127Z,3.85
2022-09-11T10:59:19.249Z,3.20
2022-09-11T11:01:50.512Z,3.10
2022-09-11T11:04:18.999Z,3.30
2022-09-11T11:07:01.316Z,2.92
2022-09-11T11:09:48.632Z,2.58
2022-09-11T11:12:34.403Z,2.90
2022-09-11T11:15:31.427Z,3.20
2022-09-11T11:18:18.976Z,3.58
2022-09-11T11:20:56.602Z,3.42
2022-09-11T11:23:45.241Z,3.17
2022-09-11T11:26:27.772Z,2.97
2022-09-11T11:29:09.501Z,3.00
2022-09-11T11:31:46.993Z,3.50
2022-09-11T11:34:31.191Z,3.28
2022-09-11T11:37:04.162Z,3.03
2022-09-11T11:39:40.552Z,3.13
2022-09-11T11:42:15.507Z,2.60
2022-09-11T11:44:49.508Z,2.60
2022-09-11T11:47:25.361Z,3.25
2022-09-11T11:50:03.018Z,2.80
2022-09-11T11:52:41.849Z,2.72
2022-09-11T11:55:18.622Z,2.90
2022-09-11T11:57:55.446Z,3.00
2022-09-11T12:00:23.947Z,3.00
2022-09-11T12:02:56.383Z,2.97
2022-09-11T12:05:30.436Z,2.90
2022-09-11T12:07:59.326Z,3.10
2022-09-11T12:10:32.008Z,3.35
2022-09-11T12:13:03.428Z,3.13
2022-09-11T12:15:34.714Z,3.17
2022-09-11T12:18:05.881Z,2.78
2022-09-11T12:20:41.765Z,3.03
2022-09-11T12:23:35.515Z,2.58
2022-09-11T12:26:19.255Z,2.78
2022-09-11T12:28:48.859Z,2.70
2022-09-11T12:31:18.761Z,2.40
2022-09-11T12:33:55.723Z,2.60
2022-09-11T12:36:38.623Z,2.47
2022-09-11T12:39:20.221Z,2.58
2022-09-11T12:41:48.942Z,2.70
2022-09-11T12:44:32.528Z,2.60
2022-09-11T12:47:13.792Z,3.03
2022-09-11T12:49:55.295Z,3.17
2022-09-11T12:52:39.543Z,3.22
2022-09-11T12:55:33.270Z,3.92
2022-09-11T12:58:04.607Z,3.90
2022-09-11T13:00:38.398Z,3.80
2022-09-11T13:03:08.867Z,4.07
2022-09-11T13:05:39.958Z,4.60
2022-09-11T13:08:17.366Z,5.07
2022-09-11T13:10:46.805Z,4.80
2022-09-11T13:13:43.470Z,5.57
2022-09-11T13:16:25.568Z,4.78
2022-09-11T13:18:57.991Z,5.28
2022-09-11T13:21:27.146Z,4.45
2022-09-11T13:24:01.730Z,4.68
2022-09-11T13:26:32.221Z,4.80
2022-09-11T13:29:02.283Z,4.18
2022-09-11T13:31:35.729Z,4.93
2022-09-11T13:34:07.825Z,4.50
2022-09-11T13:36:38.084Z,4.43
2022-09-11T13:39:09.886Z,4.65
2022-09-11T13:41:42.272Z,4.47
2022-09-11T13:44:23.310Z,4.53
2022-09-11T13:46:53.170Z,3.80
2022-09-11T13:49:31.243Z,4.00
2022-09-11T13:52:00.723Z,3.25
2022-09-11T13:54:34.170Z,2.47
2022-09-11T13:57:15.777Z,3.33
2022-09-11T13:59:49.705Z,2.10
2022-09-11T14:02:32.304Z,2.30
2022-09-11T14:05:10.003Z,1.90
2022-09-11T14:07:47.348Z,2.10
2022-09-11T14:10:22.427Z,1.80
2022-09-11T14:12:55.239Z,2.00
2022-09-11T14:15:31.189Z,1.90
2022-09-11T14:18:03.477Z,1.80
2022-09-11T14:20:33.013Z,2.00
2022-09-11T14:23:06.325Z,1.92
2022-09-11T14:25:37.221Z,1.92
2022-09-11T14:28:05.877Z,2.38
2022-09-11T14:30:37.758Z,1.92
2022-09-11T14:33:24.139Z,2.10
2022-09-11T14:35:55.022Z,2.10
2022-09-11T14:38:26.274Z,1.90
2022-09-11T14:41:01.321Z,2.20
2022-09-11T14:43:32.780Z,2.03
2022-09-11T14:46:02.508Z,2.10
2022-09-11T14:48:32.336Z,2.10
2022-09-11T14:51:00.929Z,1.70
2022-09-11T14:53:31.050Z,1.73
2022-09-11T14:56:02.043Z,1.75
2022-09-11T14:58:31.314Z,2.00
2022-09-11T15:00:59.785Z,2.00
2022-09-11T15:03:30.052Z,2.28
2022-09-11T15:05:59.738Z,2.30
2022-09-11T15:08:28.255Z,2.50
2022-09-11T15:10:56.713Z,2.40
2022-09-11T15:13:27.378Z,2.30
2022-09-11T15:15:56.266Z,2.40
2022-09-11T15:18:24.773Z,2.45
2022-09-11T15:20:53.241Z,2.40
2022-09-11T15:23:21.960Z,2.53
2022-09-11T15:25:50.536Z,4.15
2022-09-11T15:28:19.703Z,2.88
2022-09-11T15:30:59.883Z,2.70
2022-09-11T15:33:28.918Z,2.30
2022-09-11T15:36:02.964Z,2.55
2022-09-11T15:38:32.178Z,2.60
2022-09-11T15:41:00.740Z,2.50
2022-09-11T15:43:36.421Z,2.53
2022-09-11T15:46:11.459Z,2.80
2022-09-11T15:48:40.559Z,2.30
2022-09-11T15:51:13.241Z,2.40
2022-09-11T15:53:42.610Z,2.50
2022-09-11T15:56:13.137Z,2.50
2022-09-11T15:58:41.786Z,2.15
2022-09-11T16:01:18.980Z,2.60
2022-09-11T16:03:51.748Z,2.42
2022-09-11T16:06:21.212Z,2.40
2022-09-11T16:08:49.922Z,2.40
2022-09-11T16:11:18.492Z,2.40
2022-09-11T16:13:49.934Z,2.60
2022-09-11T16:16:21.192Z,2.80
2022-09-11T16:18:49.811Z,2.50
2022-09-11T16:21:19.708Z,2.90
2022-09-11T16:23:54.343Z,2.78
2022-09-11T16:26:25.215Z,2.75
2022-09-11T16:28:54.012Z,3.17
2022-09-11T16:31:24.042Z,2.78
2022-09-11T16:33:55.258Z,2.92
2022-09-11T16:36:23.728Z,2.95
2022-09-11T16:38:52.611Z,3.00
2022-09-11T16:41:22.765Z,3.13
2022-09-11T16:43:53.389Z,2.80
2022-09-11T16:46:25.523Z,2.80
2022-09-11T16:48:59.851Z,2.70
2022-09-11T16:51:30.650Z,3.10
2022-09-11T16:53:59.743Z,2.78
2022-09-11T16:56:28.308Z,2.83
2022-09-11T16:58:56.765Z,3.15
2022-09-11T17:01:28.374Z,3.00
2022-09-11T17:03:58.806Z,2.92
2022-09-11T17:06:30.268Z,3.53
2022-09-11T17:09:00.429Z,3.40
2022-09-11T17:11:31.229Z,3.55
2022-09-11T17:14:02.023Z,3.92
2022-09-11T17:16:35.701Z,3.83
2022-09-11T17:19:04.131Z,4.18
2022-09-11T17:21:35.912Z,3.63
2022-09-11T17:24:08.523Z,4.40
2022-09-11T17:26:37.417Z,3.80
2022-09-11T17:29:07.676Z,3.47
2022-09-11T17:31:37.659Z,3.60
2022-09-11T17:34:06.436Z,3.80
2022-09-11T17:36:35.513Z,5.03
2022-09-11T17:39:04.627Z,4.22
2022-09-11T17:41:33.127Z,4.35
2022-09-11T17:44:01.614Z,3.88
2022-09-11T17:46:30.566Z,4.25
2022-09-11T17:49:02.262Z,4.45
2022-09-11T17:51:30.640Z,4.60
2022-09-11T17:54:00.316Z,4.45
2022-09-11T17:56:31.936Z,4.40
2022-09-11T17:59:01.795Z,4.63
2022-09-11T18:01:31.600Z,4.95
2022-09-11T18:04:01.519Z,5.82
2022-09-11T18:06:34.041Z,5.85
2022-09-11T18:09:04.593Z,6.28
2022-09-11T18:11:33.356Z,6.13
2022-09-11T18:14:01.816Z,6.32
2022-09-11T18:16:30.434Z,6.22
2022-09-11T18:18:58.932Z,6.80
2022-09-11T18:21:29.223Z,6.72
2022-09-11T18:23:59.624Z,6.63
2022-09-11T18:26:30.221Z,6.53
2022-09-11T18:29:00.840Z,7.10
2022-09-11T18:31:30.409Z,7.40
2022-09-11T18:34:00.661Z,7.35
2022-09-11T18:36:32.316Z,7.27
2022-09-11T18:39:02.847Z,6.83
2022-09-11T18:41:33.165Z,7.27
2022-09-11T18:44:04.143Z,6.65
2022-09-11T18:46:32.958Z,6.75
2022-09-11T18:49:01.612Z,7.00
2022-09-11T18:51:32.044Z,6.23
2022-09-11T18:54:00.546Z,7.37
2022-09-11T18:56:31.368Z,7.73
2022-09-11T18:59:01.282Z,7.63
2022-09-11T19:01:32.523Z,8.00
2022-09-11T19:04:01.296Z,10.03
2022-09-11T19:06:32.176Z,8.20
2022-09-11T19:09:01.883Z,7.30
2022-09-11T19:11:32.172Z,7.40
2022-09-11T19:14:04.479Z,7.80
2022-09-11T19:16:33.987Z,7.53
2022-09-11T19:19:03.032Z,8.60
2022-09-11T19:21:32.969Z,9.60
2022-09-11T19:24:02.690Z,8.87
2022-09-11T19:26:32.812Z,9.53
2022-09-11T19:29:01.939Z,9.40
2022-09-11T19:31:32.182Z,8.97
2022-09-11T19:34:02.039Z,8.50
2022-09-11T19:36:33.833Z,9.17
2022-09-11T19:39:02.996Z,9.53
2022-09-11T19:41:33.599Z,8.50
2022-09-11T19:44:02.963Z,9.27
2022-09-11T19:46:33.061Z,9.07
2022-09-11T19:49:04.039Z,8.93
2022-09-11T19:51:36.301Z,8.67
2022-09-11T19:54:05.976Z,9.50
2022-09-11T19:56:36.514Z,8.87
2022-09-11T19:59:05.994Z,9.60
2022-09-11T20:01:34.965Z,9.93
2022-09-11T20:04:03.841Z,10.67
2022-09-11T20:06:35.913Z,10.50
2022-09-11T20:09:29.841Z,10.70
2022-09-11T20:11:53.837Z,10.07
2022-09-11T20:14:22.589Z,10.70
2022-09-11T20:16:51.024Z,10.87
2022-09-11T20:19:20.635Z,12.10
2022-09-11T20:21:50.631Z,12.03
2022-09-11T20:24:19.822Z,11.83
2022-09-11T20:26:48.473Z,12.47
2022-09-11T20:29:17.183Z,12.27
2022-09-11T20:31:48.257Z,11.97
2022-09-11T20:34:18.049Z,12.57
2022-09-11T20:36:47.010Z,11.77
2022-09-11T20:39:17.664Z,11.70
2022-09-11T20:41:46.376Z,12.57
2022-09-11T20:44:14.998Z,12.13
2022-09-11T20:46:47.535Z,12.70
2022-09-11T20:49:17.744Z,11.70
2022-09-11T20:51:46.319Z,11.57
2022-09-11T20:54:16.326Z,11.50
2022-09-11T20:56:44.721Z,11.57
2022-09-11T20:59:13.432Z,12.33
2022-09-11T21:01:42.214Z,12.10
2022-09-11T21:04:11.728Z,12.03
2022-09-11T21:06:40.162Z,12.40
2022-09-11T21:09:10.995Z,12.63
2022-09-11T21:11:42.644Z,12.40
2022-09-11T21:14:15.555Z,12.97
2022-09-11T21:16:44.148Z,12.77
2022-09-11T21:19:12.672Z,12.27
2022-09-11T21:21:41.305Z,12.43
2022-09-11T21:24:12.567Z,11.43
2022-09-11T21:26:43.300Z,12.13
2022-09-11T21:29:14.488Z,11.50
2022-09-11T21:31:43.023Z,11.30
2022-09-11T21:34:11.955Z,11.03
2022-09-11T21:36:40.623Z,11.87
2022-09-11T21:39:09.566Z,11.67
2022-09-11T21:41:38.151Z,11.17
2022-09-11T21:44:08.339Z,11.90
2022-09-11T21:46:36.882Z,11.20
2022-09-11T21:49:05.485Z,12.33
2022-09-11T21:51:33.957Z,11.93
2022-09-11T21:54:03.116Z,12.00
2022-09-11T21:56:33.834Z,11.90
2022-09-11T21:59:02.705Z,12.47
2022-09-11T22:01:33.160Z,11.87
2022-09-11T22:04:02.036Z,12.70
2022-09-11T22:06:31.136Z,12.47
2022-09-11T22:08:59.798Z,12.33
2022-09-11T22:11:28.781Z,11.40
2022-09-11T22:13:57.402Z,12.23
2022-09-11T22:16:26.082Z,12.20
2022-09-11T22:18:57.058Z,12.23
2022-09-11T22:21:25.671Z,11.93
2022-09-11T22:23:55.152Z,11.50
2022-09-11T22:26:24.614Z,11.53
2022-09-11T22:28:53.761Z,11.33
2022-09-11T22:31:25.052Z,10.93
2022-09-11T22:33:56.462Z,11.40
2022-09-11T22:36:27.241Z,11.10
2022-09-11T22:38:56.292Z,11.80
2022-09-11T22:41:25.286Z,10.83
2022-09-11T22:43:54.366Z,10.57
2022-09-11T22:46:23.967Z,10.47
2022-09-11T22:48:52.531Z,11.40
2022-09-11T22:51:22.577Z,10.57
2022-09-11T22:53:51.116Z,11.80
2022-09-11T22:56:19.608Z,10.83
2022-09-11T22:58:48.059Z,10.60
2022-09-11T23:01:22.225Z,10.27
2022-09-11T23:03:51.861Z,10.23
2022-09-11T23:06:39.437Z,10.17
2022-09-11T23:09:10.272Z,10.10
2022-09-11T23:11:38.778Z,9.57
2022-09-11T23:14:13.720Z,9.67
2022-09-11T23:16:43.294Z,9.70
2022-09-11T23:19:14.975Z,9.93
2022-09-11T23:21:44.968Z,10.13
2022-09-11T23:24:14.971Z,10.23
2022-09-11T23:26:44.210Z,10.53
2022-09-11T23:29:13.017Z,10.30
2022-09-11T23:31:42.101Z,10.77
2022-09-11T23:34:12.211Z,10.97
2022-09-11T23:36:40.669Z,11.40
2022-09-11T23:39:10.954Z,10.97
2022-09-11T23:41:39.457Z,10.47
2022-09-11T23:44:07.974Z,10.70
2022-09-11T23:46:36.523Z,10.37
2022-09-11T23:49:06.436Z,10.67
2022-09-11T23:51:34.922Z,10.23
2022-09-11T23:54:03.639Z,9.97
2022-09-11T23:56:33.758Z,10.73
2022-09-11T23:59:02.300Z,10.53
